Time;durP1;ratioP1;P1;durP2;ratioP2;P2;SDS_P1;SDS_P2;PMS_P1;PMS_P2;Temp;Humidity;BMP_temperature;BMP_pressure;BME280_temperature;BME280_humidity;BME280_pressure;Samples;Min_cycle;Max_cycle;Signal;HPM_P1;HPM_P2
2023/10/21 00:00:22;;;;;;;13.50;7.88;;;9.20;99.90;;;;;;4859485;29;20040;-80
2023/10/21 00:02:50;;;;;;;13.43;8.05;;;9.20;99.90;;;;;;4859303;29;20051;-80
2023/10/21 00:05:16;;;;;;;12.80;7.78;;;9.30;99.90;;;;;;4860957;29;20044;-80
2023/10/21 00:07:42;;;;;;;13.93;8.20;;;9.30;99.90;;;;;;4874939;29;20037;-80
2023/10/21 00:10:08;;;;;;;13.65;8.48;;;9.30;99.90;;;;;;4874119;29;20045;-80
2023/10/21 00:12:35;;;;;;;13.70;8.02;;;9.30;99.90;;;;;;4870432;29;20123;-81
2023/10/21 00:15:01;;;;;;;15.60;8.98;;;9.30;99.90;;;;;;4872943;29;20381;-80
2023/10/21 00:17:30;;;;;;;15.23;8.95;;;9.40;99.90;;;;;;4857015;29;20148;-80
2023/10/21 00:19:56;;;;;;;13.45;8.82;;;9.40;99.90;;;;;;4873249;29;20037;-80
2023/10/21 00:22:22;;;;;;;13.10;8.48;;;9.40;99.90;;;;;;4856696;29;20105;-80
2023/10/21 00:24:48;;;;;;;12.77;8.10;;;9.40;99.90;;;;;;4889028;29;20068;-80
2023/10/21 00:27:13;;;;;;;13.75;8.43;;;9.40;99.90;;;;;;4874325;29;20044;-80
2023/10/21 00:29:39;;;;;;;14.35;8.50;;;9.40;99.90;;;;;;4878805;29;20062;-80
2023/10/21 00:32:05;;;;;;;14.73;8.98;;;9.50;99.90;;;;;;4873063;29;20040;-80
2023/10/21 00:34:31;;;;;;;12.90;8.15;;;9.50;99.90;;;;;;4857137;29;20040;-80
2023/10/21 00:36:57;;;;;;;12.85;8.23;;;9.60;99.90;;;;;;4853472;29;20074;-80
2023/10/21 00:39:23;;;;;;;12.88;8.35;;;9.60;99.90;;;;;;4858917;29;20483;-80
2023/10/21 00:41:49;;;;;;;13.95;8.63;;;9.70;99.90;;;;;;4856879;29;20503;-80
2023/10/21 00:44:14;;;;;;;15.38;9.38;;;9.70;99.90;;;;;;4874294;29;20499;-80
2023/10/21 00:46:42;;;;;;;13.30;8.75;;;9.80;99.90;;;;;;4856766;29;20184;-80
2023/10/21 00:49:07;;;;;;;13.07;8.32;;;9.80;99.90;;;;;;4873708;29;20056;-80
2023/10/21 00:51:35;;;;;;;13.25;8.40;;;9.80;99.90;;;;;;4845631;29;20044;-80
2023/10/21 00:54:02;;;;;;;14.35;8.85;;;9.90;99.90;;;;;;4872943;29;20586;-80
2023/10/21 00:56:28;;;;;;;14.40;8.23;;;9.90;99.90;;;;;;4858776;29;20194;-80
2023/10/21 00:58:54;;;;;;;14.13;8.50;;;9.90;99.90;;;;;;4858386;29;20060;-80
2023/10/21 01:01:21;;;;;;;13.57;8.50;;;9.90;99.90;;;;;;4872717;29;20029;-80
2023/10/21 01:03:47;;;;;;;15.52;9.25;;;9.90;99.90;;;;;;4874394;29;20052;-80
2023/10/21 01:06:14;;;;;;;15.82;8.77;;;10.00;99.90;;;;;;4856646;29;20044;-80
2023/10/21 01:08:45;;;;;;;13.90;8.90;;;10.00;99.90;;;;;;4873785;29;20131;-80
2023/10/21 01:11:11;;;;;;;15.13;8.65;;;10.00;99.90;;;;;;4858433;29;20036;-80
2023/10/21 01:13:37;;;;;;;13.63;8.98;;;10.00;99.90;;;;;;4858087;29;20529;-80
2023/10/21 01:16:03;;;;;;;13.68;8.57;;;10.00;99.90;;;;;;4872867;29;20063;-80
2023/10/21 01:18:33;;;;;;;13.98;8.57;;;9.90;99.90;;;;;;4857550;29;20059;-80
2023/10/21 01:21:02;;;;;;;13.60;8.73;;;10.00;99.90;;;;;;4873984;29;20064;-80
2023/10/21 01:23:30;;;;;;;13.38;8.82;;;9.90;99.90;;;;;;4858678;29;20060;-80
2023/10/21 01:25:56;;;;;;;13.55;8.77;;;9.90;99.90;;;;;;4872148;29;20479;-80
2023/10/21 01:28:22;;;;;;;14.23;9.15;;;9.90;99.90;;;;;;4857371;29;20115;-80
2023/10/21 01:30:47;;;;;;;14.65;9.45;;;9.90;99.90;;;;;;4872423;29;20136;-80
2023/10/21 01:33:14;;;;;;;13.75;9.07;;;9.90;99.90;;;;;;4891364;29;20040;-81
2023/10/21 01:35:39;;;;;;;14.57;8.90;;;9.80;99.90;;;;;;4859172;29;20077;-80
2023/10/21 01:38:05;;;;;;;13.95;8.90;;;9.90;99.90;;;;;;4857477;29;20073;-80
2023/10/21 01:40:31;;;;;;;13.25;8.50;;;9.80;99.90;;;;;;4873232;29;20292;-80
2023/10/21 01:42:57;;;;;;;12.52;8.02;;;9.70;99.90;;;;;;4873175;29;20033;-80
2023/10/21 01:45:23;;;;;;;13.82;8.82;;;9.70;99.90;;;;;;4873656;29;20439;-80
2023/10/21 01:47:49;;;;;;;13.88;8.77;;;9.70;99.90;;;;;;4857443;29;20068;-80
2023/10/21 01:50:15;;;;;;;13.18;8.63;;;9.60;99.90;;;;;;4873270;29;20116;-80
2023/10/21 01:52:40;;;;;;;14.40;8.75;;;9.60;99.90;;;;;;4874023;29;20040;-80
2023/10/21 01:55:08;;;;;;;15.60;8.95;;;9.50;99.90;;;;;;4873292;29;20045;-80
2023/10/21 01:57:35;;;;;;;14.25;8.77;;;9.50;99.90;;;;;;4890388;29;20040;-79
2023/10/21 02:00:01;;;;;;;14.52;8.60;;;9.40;99.90;;;;;;4854235;29;20271;-80
2023/10/21 02:02:28;;;;;;;13.15;8.43;;;9.40;99.90;;;;;;4870788;29;20044;-80
2023/10/21 02:04:54;;;;;;;14.00;8.85;;;9.40;99.90;;;;;;4853461;29;20067;-80
2023/10/21 02:07:19;;;;;;;13.65;8.75;;;9.30;99.90;;;;;;4873517;29;20040;-80
2023/10/21 02:09:46;;;;;;;13.45;8.55;;;9.30;99.90;;;;;;4872882;29;20044;-80
2023/10/21 02:12:11;;;;;;;13.27;8.25;;;9.30;99.90;;;;;;4888969;29;20131;-80
2023/10/21 02:14:37;;;;;;;12.90;8.32;;;9.20;99.90;;;;;;4873111;29;20177;-80
2023/10/21 02:17:03;;;;;;;14.38;8.57;;;9.20;99.90;;;;;;4889078;29;20411;-80
2023/10/21 02:19:29;;;;;;;13.82;8.25;;;9.20;99.90;;;;;;4890830;29;20036;-80
2023/10/21 02:21:54;;;;;;;13.38;8.43;;;9.20;99.90;;;;;;4858334;29;20640;-80
2023/10/21 02:24:20;;;;;;;13.05;8.07;;;9.20;99.90;;;;;;4857825;29;20044;-80
2023/10/21 02:26:46;;;;;;;14.00;8.77;;;9.10;99.90;;;;;;4877225;29;20048;-80
2023/10/21 02:29:11;;;;;;;16.65;8.68;;;9.20;99.90;;;;;;4876301;29;21533;-80
2023/10/21 02:31:37;;;;;;;12.32;7.95;;;9.30;99.90;;;;;;4875024;29;21638;-80
2023/10/21 02:34:03;;;;;;;13.93;8.52;;;9.10;99.90;;;;;;4873928;29;20387;-80
2023/10/21 02:36:29;;;;;;;12.50;8.20;;;9.10;99.90;;;;;;4891119;29;20309;-80
2023/10/21 02:38:54;;;;;;;13.10;8.13;;;9.10;99.90;;;;;;4891675;29;20067;-80
2023/10/21 02:41:20;;;;;;;14.95;8.63;;;9.10;99.90;;;;;;4867019;29;20096;-80
2023/10/21 02:43:48;;;;;;;13.50;8.40;;;9.10;99.90;;;;;;4890304;29;20044;-80
2023/10/21 02:46:14;;;;;;;13.10;8.27;;;9.10;99.90;;;;;;4885944;29;20079;-80
2023/10/21 02:48:40;;;;;;;13.52;8.63;;;9.00;99.90;;;;;;4886904;29;20040;-80
2023/10/21 02:51:17;;;;;;;13.27;8.50;;;9.00;99.90;;;;;;4875185;29;20040;-80
2023/10/21 02:53:43;;;;;;;13.73;8.88;;;9.00;99.90;;;;;;4875242;29;20128;-80
2023/10/21 02:56:13;;;;;;;13.23;8.32;;;9.10;99.90;;;;;;4875411;29;20053;-80
2023/10/21 02:58:40;;;;;;;14.63;8.65;;;9.00;99.90;;;;;;4875893;29;20053;-80
2023/10/21 03:01:18;;;;;;;14.60;9.15;;;9.10;99.90;;;;;;4891380;29;20041;-80
2023/10/21 03:03:45;;;;;;;14.50;9.05;;;9.10;99.90;;;;;;4875305;29;20037;-80
2023/10/21 03:06:13;;;;;;;14.27;9.00;;;9.20;99.90;;;;;;4889660;29;20290;-80
2023/10/21 03:08:39;;;;;;;16.80;9.70;;;9.20;99.90;;;;;;4875068;29;20044;-80
2023/10/21 03:11:06;;;;;;;18.83;9.75;;;9.30;99.90;;;;;;4860535;29;20115;-80
2023/10/21 03:13:32;;;;;;;14.93;9.15;;;9.30;99.90;;;;;;4876938;29;20096;-80
2023/10/21 03:15:58;;;;;;;15.25;9.48;;;9.30;99.90;;;;;;4876222;29;20136;-80
2023/10/21 03:18:24;;;;;;;14.60;9.25;;;9.30;99.90;;;;;;4860714;29;20080;-80
2023/10/21 03:20:50;;;;;;;17.98;10.50;;;9.40;99.90;;;;;;4865741;29;20060;-80
2023/10/21 03:23:16;;;;;;;15.77;9.07;;;9.40;99.90;;;;;;4887050;29;20450;-80
2023/10/21 03:25:42;;;;;;;17.48;9.77;;;9.40;99.90;;;;;;4852238;29;20041;-80
2023/10/21 03:28:09;;;;;;;16.67;9.90;;;9.40;99.90;;;;;;4870659;29;20047;-80
2023/10/21 03:30:34;;;;;;;15.48;9.48;;;9.50;99.90;;;;;;4866909;29;20048;-80
2023/10/21 03:33:00;;;;;;;15.65;9.60;;;9.50;99.90;;;;;;4860971;29;20040;-80
2023/10/21 03:35:26;;;;;;;16.20;10.60;;;9.50;99.90;;;;;;4870536;29;20136;-80
2023/10/21 03:37:51;;;;;;;14.35;9.23;;;9.50;99.90;;;;;;4839507;29;20048;-80
2023/10/21 03:40:17;;;;;;;18.27;9.40;;;9.50;99.90;;;;;;4865378;29;20510;-80
2023/10/21 03:42:43;;;;;;;16.73;9.45;;;9.50;99.90;;;;;;4861196;29;21347;-80
2023/10/21 03:45:09;;;;;;;15.73;9.30;;;9.50;99.90;;;;;;4860324;29;20479;-80
2023/10/21 03:47:34;;;;;;;16.00;9.10;;;9.50;99.90;;;;;;4865023;29;20033;-80
2023/10/21 03:50:01;;;;;;;16.42;9.60;;;9.50;99.90;;;;;;4873419;29;20542;-80
2023/10/21 03:52:27;;;;;;;16.52;10.30;;;9.50;99.90;;;;;;4866373;29;20083;-79
2023/10/21 03:54:52;;;;;;;14.60;9.13;;;9.50;99.90;;;;;;4844052;29;20499;-80
2023/10/21 03:57:18;;;;;;;15.82;9.82;;;9.50;99.90;;;;;;4862382;29;20492;-80
2023/10/21 03:59:44;;;;;;;16.65;9.77;;;9.60;99.90;;;;;;4864454;29;20120;-80
2023/10/21 04:02:09;;;;;;;16.33;10.07;;;9.60;99.90;;;;;;4859543;29;20396;-80
2023/10/21 04:04:35;;;;;;;15.98;9.52;;;9.50;99.90;;;;;;4866272;29;20036;-80
2023/10/21 04:07:01;;;;;;;16.48;9.73;;;9.60;99.90;;;;;;4852889;29;20052;-80
2023/10/21 04:09:26;;;;;;;16.77;10.00;;;9.60;99.90;;;;;;4851937;29;20613;-80
2023/10/21 04:11:53;;;;;;;16.63;9.93;;;9.60;99.90;;;;;;4844607;29;20051;-80
2023/10/21 04:14:18;;;;;;;15.70;9.48;;;9.60;99.90;;;;;;4861054;29;20084;-80
2023/10/21 04:16:44;;;;;;;16.17;10.07;;;9.60;99.90;;;;;;4864343;29;20586;-80
2023/10/21 04:19:10;;;;;;;15.20;9.32;;;9.60;99.90;;;;;;4869615;29;20151;-80
2023/10/21 04:21:36;;;;;;;15.35;9.77;;;9.50;99.90;;;;;;4870799;29;20049;-80
2023/10/21 04:24:03;;;;;;;14.68;8.88;;;9.60;99.90;;;;;;4875509;29;20067;-80
2023/10/21 04:26:30;;;;;;;15.02;8.88;;;9.60;99.90;;;;;;4870348;29;20063;-80
2023/10/21 04:28:56;;;;;;;16.67;8.82;;;9.60;99.90;;;;;;4870169;29;20044;-80
2023/10/21 04:31:21;;;;;;;14.60;8.68;;;9.50;99.90;;;;;;4872431;29;20104;-80
2023/10/21 04:33:47;;;;;;;13.95;8.90;;;9.50;99.90;;;;;;4869546;29;20048;-80
2023/10/21 04:36:18;;;;;;;13.70;8.80;;;9.50;99.90;;;;;;4888411;29;20041;-80
2023/10/21 04:38:44;;;;;;;12.52;7.80;;;9.50;99.90;;;;;;4875148;29;20051;-80
2023/10/21 04:41:10;;;;;;;13.48;8.13;;;9.50;99.90;;;;;;4853760;29;20044;-80
2023/10/21 04:43:36;;;;;;;14.13;8.20;;;9.50;99.90;;;;;;4864919;29;20047;-80
2023/10/21 04:46:02;;;;;;;12.77;7.07;;;9.50;99.90;;;;;;4887563;29;20526;-80
2023/10/21 04:48:28;;;;;;;12.48;7.53;;;9.50;99.90;;;;;;4848741;29;20131;-80
2023/10/21 04:50:54;;;;;;;12.55;7.28;;;9.50;99.90;;;;;;4872225;29;20127;-81
2023/10/21 04:53:19;;;;;;;11.73;7.07;;;9.40;99.90;;;;;;4873694;29;20043;-80
2023/10/21 04:55:45;;;;;;;11.95;7.30;;;9.60;99.90;;;;;;4856388;29;20082;-80
2023/10/21 04:58:11;;;;;;;13.88;7.15;;;9.40;99.90;;;;;;4851176;29;20665;-80
2023/10/21 05:00:36;;;;;;;13.82;7.40;;;9.40;99.90;;;;;;4854673;29;20044;-80
2023/10/21 05:03:02;;;;;;;12.52;7.38;;;9.40;99.90;;;;;;4875011;29;20071;-80
2023/10/21 05:05:28;;;;;;;12.70;7.00;;;9.40;99.90;;;;;;4856218;29;20044;-80
2023/10/21 05:07:54;;;;;;;11.65;7.07;;;9.40;99.90;;;;;;4858272;29;20045;-80
2023/10/21 05:10:19;;;;;;;11.52;7.05;;;9.40;99.90;;;;;;4889775;29;20545;-80
2023/10/21 05:12:45;;;;;;;13.00;7.28;;;9.30;99.90;;;;;;4856586;29;20527;-80
2023/10/21 05:15:11;;;;;;;12.75;6.85;;;9.40;99.90;;;;;;4850682;29;20120;-80
2023/10/21 05:17:37;;;;;;;11.73;6.88;;;9.30;99.90;;;;;;4873660;29;20041;-80
2023/10/21 05:20:03;;;;;;;10.88;6.65;;;9.30;99.90;;;;;;4856769;29;20455;-79
2023/10/21 05:22:29;;;;;;;12.05;6.70;;;9.40;99.90;;;;;;4872442;29;20116;-80
2023/10/21 05:24:55;;;;;;;10.73;6.22;;;9.30;99.90;;;;;;4853847;29;20132;-80
2023/10/21 05:27:21;;;;;;;15.00;7.25;;;9.40;99.90;;;;;;4871802;29;20053;-80
2023/10/21 05:29:47;;;;;;;11.20;6.90;;;9.30;99.90;;;;;;4869108;29;20088;-80
2023/10/21 05:32:14;;;;;;;10.98;6.15;;;9.30;99.90;;;;;;4859871;29;20064;-80
2023/10/21 05:34:41;;;;;;;11.55;6.47;;;9.40;99.90;;;;;;4827033;29;20044;-80
2023/10/21 05:37:07;;;;;;;10.60;6.32;;;9.30;99.90;;;;;;4856612;29;20040;-80
2023/10/21 05:39:32;;;;;;;10.77;5.90;;;9.30;99.90;;;;;;4872433;29;20051;-80
2023/10/21 05:41:59;;;;;;;10.70;6.30;;;9.40;99.90;;;;;;4856636;29;20058;-80
2023/10/21 05:44:24;;;;;;;11.68;6.50;;;9.40;99.90;;;;;;4856860;29;20101;-80
2023/10/21 05:46:51;;;;;;;10.73;6.18;;;9.40;99.90;;;;;;4859672;29;20044;-80
2023/10/21 05:49:18;;;;;;;13.52;6.55;;;9.40;99.90;;;;;;4871136;29;20329;-80
2023/10/21 05:51:43;;;;;;;12.82;6.65;;;9.40;99.90;;;;;;4855497;29;20510;-80
2023/10/21 05:54:09;;;;;;;12.20;6.10;;;9.40;99.90;;;;;;4860194;29;20048;-80
2023/10/21 05:56:35;;;;;;;11.20;6.53;;;9.40;99.90;;;;;;4844476;29;20052;-80
2023/10/21 05:59:01;;;;;;;10.73;5.85;;;9.40;99.90;;;;;;4844234;29;20033;-80
2023/10/21 06:01:26;;;;;;;11.32;6.30;;;9.50;99.90;;;;;;4854561;29;20104;-80
2023/10/21 06:03:53;;;;;;;10.73;6.03;;;9.50;99.90;;;;;;4842432;29;20127;-80
2023/10/21 06:06:19;;;;;;;10.50;5.93;;;9.40;99.90;;;;;;4858445;29;20041;-80
2023/10/21 06:08:44;;;;;;;12.00;6.05;;;9.50;99.90;;;;;;4853247;29;20122;-80
2023/10/21 06:11:10;;;;;;;11.20;6.20;;;9.50;99.90;;;;;;4891219;29;20044;-80
2023/10/21 06:13:36;;;;;;;11.80;6.53;;;9.60;99.90;;;;;;4874248;29;20068;-80
2023/10/21 06:16:02;;;;;;;10.80;5.82;;;9.50;99.90;;;;;;4842635;29;20495;-80
2023/10/21 06:18:28;;;;;;;12.90;6.32;;;9.60;99.90;;;;;;4873691;29;20040;-80
2023/10/21 06:20:54;;;;;;;11.55;5.88;;;9.60;99.90;;;;;;4814575;29;1136616;-80
2023/10/21 06:23:20;;;;;;;12.70;6.00;;;9.60;99.90;;;;;;4891223;29;20048;-80
2023/10/21 06:25:45;;;;;;;10.38;5.53;;;9.60;99.90;;;;;;4874271;29;20044;-80
2023/10/21 06:28:13;;;;;;;10.07;5.30;;;9.70;99.90;;;;;;4874497;29;20044;-80
2023/10/21 06:30:42;;;;;;;10.35;6.07;;;9.70;99.90;;;;;;4888198;29;20052;-80
2023/10/21 06:33:11;;;;;;;9.80;5.38;;;9.70;99.90;;;;;;4876369;29;20467;-80
2023/10/21 06:35:38;;;;;;;10.50;5.40;;;9.70;99.90;;;;;;4891031;29;20059;-80
2023/10/21 06:38:05;;;;;;;10.85;6.32;;;9.80;99.90;;;;;;4863296;29;20040;-80
2023/10/21 06:40:31;;;;;;;10.40;6.07;;;9.80;99.90;;;;;;4883059;29;20044;-80
2023/10/21 06:42:57;;;;;;;10.82;5.75;;;9.80;99.90;;;;;;4892275;29;20040;-80
2023/10/21 06:45:23;;;;;;;11.18;5.82;;;9.80;99.90;;;;;;4872319;29;20087;-80
2023/10/21 06:47:49;;;;;;;10.68;5.85;;;9.80;99.90;;;;;;4874460;29;20068;-82
2023/10/21 06:50:15;;;;;;;11.57;5.90;;;10.50;99.90;;;;;;4875984;29;20104;-81
2023/10/21 06:52:40;;;;;;;9.88;5.80;;;9.90;99.90;;;;;;4865103;29;20492;-80
2023/10/21 06:55:07;;;;;;;10.25;5.75;;;9.90;99.90;;;;;;4854939;29;20047;-80
2023/10/21 06:57:33;;;;;;;10.75;5.60;;;9.90;99.90;;;;;;4872566;29;20163;-80
2023/10/21 06:59:59;;;;;;;11.48;6.07;;;9.90;99.90;;;;;;4858641;29;20125;-80
2023/10/21 07:02:25;;;;;;;11.25;5.93;;;9.90;99.90;;;;;;4891173;29;20067;-80
2023/10/21 07:04:51;;;;;;;10.82;5.55;;;10.30;99.90;;;;;;4890434;29;20045;-80
2023/10/21 07:07:17;;;;;;;10.60;6.28;;;10.00;99.90;;;;;;4860030;29;20534;-81
2023/10/21 07:09:42;;;;;;;10.40;5.60;;;10.00;99.90;;;;;;4876813;29;20543;-80
2023/10/21 07:12:09;;;;;;;11.07;5.93;;;10.10;99.90;;;;;;4860922;29;20044;-80
2023/10/21 07:14:35;;;;;;;11.38;6.22;;;10.10;99.90;;;;;;4876339;29;20118;-80
2023/10/21 07:17:01;;;;;;;11.35;5.75;;;10.10;99.90;;;;;;4875698;29;20127;-80
2023/10/21 07:19:26;;;;;;;13.73;6.00;;;10.20;99.90;;;;;;4873892;29;20048;-81
2023/10/21 07:21:52;;;;;;;9.85;5.38;;;10.20;99.90;;;;;;4843509;29;20403;-82
2023/10/21 07:24:18;;;;;;;10.05;5.63;;;10.20;99.90;;;;;;4856694;29;20043;-81
2023/10/21 07:26:44;;;;;;;10.63;5.93;;;10.30;99.90;;;;;;4858414;29;20104;-80
2023/10/21 07:29:10;;;;;;;13.13;6.53;;;10.30;99.90;;;;;;4855823;29;20052;-81
2023/10/21 07:31:36;;;;;;;10.27;5.80;;;10.30;99.90;;;;;;4871129;29;20044;-80
2023/10/21 07:34:02;;;;;;;9.95;5.28;;;10.40;99.90;;;;;;4858226;29;20044;-80
2023/10/21 07:36:28;;;;;;;15.27;6.13;;;10.40;99.90;;;;;;4842814;29;20064;-81
2023/10/21 07:38:53;;;;;;;11.40;5.82;;;10.40;99.90;;;;;;4889888;29;21671;-81
2023/10/21 07:41:19;;;;;;;10.05;5.75;;;10.50;99.90;;;;;;4857256;29;20537;-80
2023/10/21 07:43:45;;;;;;;9.95;5.30;;;10.50;99.90;;;;;;4889190;29;20151;-80
2023/10/21 07:46:12;;;;;;;10.55;5.40;;;10.50;99.90;;;;;;4889290;29;21585;-80
2023/10/21 07:48:39;;;;;;;11.60;5.82;;;10.50;99.90;;;;;;4891852;29;20146;-80
2023/10/21 07:51:05;;;;;;;11.18;5.93;;;10.60;99.90;;;;;;4876479;29;20044;-80
2023/10/21 07:53:31;;;;;;;9.98;5.50;;;10.60;99.90;;;;;;4856770;29;20045;-80
2023/10/21 07:55:57;;;;;;;10.38;5.50;;;10.60;99.90;;;;;;4852454;29;20063;-80
2023/10/21 07:58:23;;;;;;;10.93;5.75;;;10.70;99.90;;;;;;4860573;29;20041;-80
2023/10/21 08:00:49;;;;;;;11.18;5.88;;;10.70;99.90;;;;;;4855913;29;20051;-81
2023/10/21 08:03:14;;;;;;;10.60;5.40;;;10.70;99.90;;;;;;4872974;29;20250;-80
2023/10/21 08:05:41;;;;;;;10.27;5.40;;;10.70;99.90;;;;;;4874151;29;20499;-80
2023/10/21 08:08:07;;;;;;;11.05;5.78;;;10.80;99.90;;;;;;4875563;29;20415;-80
2023/10/21 08:10:33;;;;;;;11.57;5.50;;;10.80;99.90;;;;;;4859282;29;20045;-80
2023/10/21 08:12:59;;;;;;;10.77;5.47;;;10.80;99.90;;;;;;4890744;29;20045;-80
2023/10/21 08:15:25;;;;;;;13.00;6.25;;;10.90;99.90;;;;;;4872112;29;20531;-80
2023/10/21 08:17:51;;;;;;;10.77;5.72;;;10.90;99.90;;;;;;4891390;29;20036;-80
2023/10/21 08:20:17;;;;;;;11.05;5.38;;;11.00;99.90;;;;;;4863366;29;20148;-79
2023/10/21 08:22:43;;;;;;;10.50;5.32;;;11.00;99.90;;;;;;4855987;29;20100;-80
2023/10/21 08:25:08;;;;;;;12.65;6.35;;;11.10;99.90;;;;;;4874740;29;20029;-79
2023/10/21 08:27:36;;;;;;;10.48;5.13;;;11.10;99.90;;;;;;4841929;29;20181;-80
2023/10/21 08:30:03;;;;;;;12.45;6.38;;;11.20;99.90;;;;;;4869218;29;20044;-80
2023/10/21 08:32:29;;;;;;;11.00;5.93;;;11.20;99.90;;;;;;4866101;29;20068;-81
2023/10/21 08:34:56;;;;;;;10.82;6.05;;;11.30;99.90;;;;;;4887323;29;20155;-80
2023/10/21 08:37:21;;;;;;;12.85;5.65;;;11.40;99.90;;;;;;4886853;29;20073;-80
2023/10/21 08:39:50;;;;;;;13.65;6.20;;;11.40;99.90;;;;;;4873977;29;20052;-80
2023/10/21 08:42:17;;;;;;;11.27;6.07;;;11.50;99.90;;;;;;4873160;29;20091;-80
2023/10/21 08:44:45;;;;;;;13.75;6.43;;;11.60;99.90;;;;;;4856381;29;20032;-80
2023/10/21 08:47:13;;;;;;;13.38;5.47;;;11.70;99.90;;;;;;4855975;29;20127;-80
2023/10/21 08:49:41;;;;;;;11.23;5.07;;;11.80;99.90;;;;;;4873107;29;20036;-80
2023/10/21 08:52:12;;;;;;;11.43;5.95;;;11.80;99.90;;;;;;4852029;29;20506;-81
2023/10/21 08:54:40;;;;;;;10.70;5.82;;;11.90;99.90;;;;;;4870321;29;20056;-80
2023/10/21 08:57:06;;;;;;;11.02;5.63;;;11.90;99.90;;;;;;4883750;29;20119;-80
2023/10/21 08:59:32;;;;;;;12.13;6.30;;;12.00;99.90;;;;;;4855448;29;20163;-79
2023/10/21 09:01:58;;;;;;;12.68;6.85;;;12.10;99.90;;;;;;4887739;29;20041;-79
2023/10/21 09:04:24;;;;;;;17.02;5.72;;;12.20;99.90;;;;;;4858442;29;20039;-79
2023/10/21 09:06:55;;;;;;;11.30;5.93;;;12.30;99.90;;;;;;4868937;29;20040;-80
2023/10/21 09:09:26;;;;;;;10.57;5.93;;;12.30;99.90;;;;;;4876004;29;20539;-79
2023/10/21 09:12:15;;;;;;;10.63;5.97;;;12.40;99.90;;;;;;4875047;29;20059;-80
2023/10/21 09:14:58;;;;;;;10.75;5.72;;;12.40;99.90;;;;;;4875918;29;20076;-79
2023/10/21 09:17:44;;;;;;;11.15;5.20;;;12.40;99.90;;;;;;4877718;29;20411;-79
2023/10/21 09:20:21;;;;;;;10.63;5.63;;;12.50;99.90;;;;;;4873918;29;20040;-79
2023/10/21 09:22:52;;;;;;;10.65;5.80;;;12.70;99.90;;;;;;4876378;29;20056;-80
2023/10/21 09:25:22;;;;;;;10.32;5.40;;;12.80;99.90;;;;;;4893024;29;20128;-80
2023/10/21 09:27:53;;;;;;;10.98;6.00;;;12.90;99.90;;;;;;4876106;29;20086;-80
2023/10/21 09:30:24;;;;;;;9.75;5.50;;;13.10;99.90;;;;;;4876217;29;20131;-79
2023/10/21 09:32:50;;;;;;;10.00;5.20;;;13.20;99.90;;;;;;4861878;29;20036;-80
2023/10/21 09:35:21;;;;;;;13.75;6.43;;;13.30;99.90;;;;;;4876374;29;20415;-80
2023/10/21 09:37:47;;;;;;;9.48;5.22;;;13.30;99.90;;;;;;4873805;29;20251;-79
2023/10/21 09:40:14;;;;;;;10.70;5.25;;;13.50;99.90;;;;;;4874818;29;20556;-80
2023/10/21 09:42:41;;;;;;;10.55;5.55;;;13.60;99.90;;;;;;4887410;29;20403;-80
2023/10/21 09:45:09;;;;;;;10.75;5.55;;;13.70;99.90;;;;;;4859118;29;20660;-80
2023/10/21 09:47:39;;;;;;;10.20;5.10;;;13.70;99.90;;;;;;4878202;29;20036;-80
2023/10/21 09:50:14;;;;;;;9.68;5.32;;;13.70;99.90;;;;;;4860115;29;20160;-80
2023/10/21 09:52:49;;;;;;;12.85;5.45;;;13.80;99.90;;;;;;4874031;29;20148;-80
2023/10/21 09:55:17;;;;;;;9.48;5.10;;;13.70;99.90;;;;;;4878639;29;20048;-82
2023/10/21 09:57:45;;;;;;;13.43;4.93;;;13.70;99.90;;;;;;4871143;29;20040;-80
2023/10/21 10:00:12;;;;;;;8.88;4.43;;;13.80;99.90;;;;;;4877643;29;20036;-80
2023/10/21 10:02:40;;;;;;;9.02;4.57;;;13.80;99.90;;;;;;4890389;29;20069;-80
2023/10/21 10:05:07;;;;;;;10.70;4.60;;;13.80;99.90;;;;;;4843427;29;20573;-80
2023/10/21 10:07:39;;;;;;;8.57;4.10;;;13.80;99.90;;;;;;4877807;29;20136;-80
2023/10/21 10:10:07;;;;;;;9.48;4.32;;;13.80;99.90;;;;;;4893141;29;20434;-80
2023/10/21 10:12:44;;;;;;;8.10;3.90;;;13.80;99.90;;;;;;4878005;29;20051;-80
2023/10/21 10:15:45;;;;;;;10.98;4.45;;;13.80;99.90;;;;;;4888969;29;20089;-80
2023/10/21 10:18:19;;;;;;;9.95;3.72;;;13.80;99.90;;;;;;4861265;29;20393;-80
2023/10/21 10:20:48;;;;;;;10.10;3.63;;;13.80;99.90;;;;;;4873516;29;20057;-80
2023/10/21 10:23:14;;;;;;;9.70;3.67;;;13.80;99.90;;;;;;4876006;29;20052;-80
2023/10/21 10:25:57;;;;;;;8.20;3.40;;;13.80;99.90;;;;;;4860932;29;20101;-80
2023/10/21 10:28:27;;;;;;;7.60;3.33;;;13.80;99.90;;;;;;4874793;29;20049;-80
2023/10/21 10:30:54;;;;;;;7.93;3.40;;;13.80;99.90;;;;;;4875317;29;20398;-80
2023/10/21 10:33:27;;;;;;;9.50;3.45;;;13.80;99.90;;;;;;4832088;29;20045;-80
2023/10/21 10:35:55;;;;;;;10.20;3.45;;;13.80;99.90;;;;;;4892049;29;20045;-80
2023/10/21 10:38:26;;;;;;;8.00;2.90;;;13.80;99.90;;;;;;4877219;29;20056;-80
2023/10/21 10:40:57;;;;;;;7.55;2.90;;;13.70;99.90;;;;;;4879477;29;20040;-80
2023/10/21 10:43:23;;;;;;;6.68;2.55;;;13.70;99.90;;;;;;4896855;29;20053;-80
2023/10/21 10:45:49;;;;;;;6.63;2.40;;;13.70;99.90;;;;;;4863461;29;20037;-80
2023/10/21 10:48:16;;;;;;;5.90;2.30;;;13.70;99.90;;;;;;4880621;29;20052;-80
2023/10/21 10:50:42;;;;;;;6.68;2.33;;;13.70;99.90;;;;;;4865058;29;20081;-80
2023/10/21 10:53:21;;;;;;;6.45;2.20;;;13.70;99.90;;;;;;4868603;29;20435;-80
2023/10/21 10:55:57;;;;;;;4.35;1.70;;;13.70;99.90;;;;;;4876834;29;20416;-81
2023/10/21 10:58:26;;;;;;;4.45;1.85;;;13.80;99.90;;;;;;4863418;29;20041;-80
2023/10/21 11:00:52;;;;;;;4.05;1.80;;;13.70;99.90;;;;;;4864491;29;20076;-81
2023/10/21 11:03:29;;;;;;;3.17;1.58;;;13.80;99.90;;;;;;4865117;29;20036;-81
2023/10/21 11:05:57;;;;;;;3.40;1.60;;;13.90;99.90;;;;;;4878723;29;21396;-80
2023/10/21 11:08:24;;;;;;;4.18;1.60;;;13.90;99.90;;;;;;4880150;29;20048;-81
2023/10/21 11:10:53;;;;;;;3.20;1.60;;;13.90;99.90;;;;;;4878252;29;20092;-81
2023/10/21 11:13:22;;;;;;;3.85;1.70;;;13.90;99.90;;;;;;4866216;29;20041;-80
2023/10/21 11:15:51;;;;;;;4.03;1.80;;;13.90;99.90;;;;;;4879576;29;20109;-80
2023/10/21 11:18:18;;;;;;;2.75;1.50;;;13.90;99.90;;;;;;4896326;29;20106;-80
2023/10/21 11:20:48;;;;;;;3.33;1.48;;;13.90;99.90;;;;;;4862594;29;20052;-81
2023/10/21 11:23:16;;;;;;;4.63;1.77;;;13.80;99.90;;;;;;4874780;29;20205;-80
2023/10/21 11:25:45;;;;;;;3.08;1.40;;;13.80;99.90;;;;;;4891542;29;20528;-81
2023/10/21 11:28:13;;;;;;;3.13;1.30;;;13.70;99.90;;;;;;4875888;29;20053;-80
2023/10/21 11:30:41;;;;;;;3.22;1.40;;;13.70;99.90;;;;;;4861145;29;20047;-80
2023/10/21 11:33:10;;;;;;;3.10;1.25;;;13.70;99.90;;;;;;4855652;29;20525;-80
2023/10/21 11:35:39;;;;;;;3.03;1.30;;;13.70;99.90;;;;;;4857182;29;20420;-80
2023/10/21 11:38:05;;;;;;;3.25;1.40;;;13.80;99.90;;;;;;4846305;29;20043;-81
2023/10/21 11:40:34;;;;;;;3.95;1.40;;;13.90;99.90;;;;;;4851286;29;20079;-80
2023/10/21 11:43:06;;;;;;;2.75;1.50;;;14.00;99.90;;;;;;4889163;29;20210;-81
2023/10/21 11:45:32;;;;;;;3.33;1.40;;;14.10;99.90;;;;;;4875699;29;20417;-81
2023/10/21 11:48:02;;;;;;;2.22;1.35;;;14.00;99.90;;;;;;4849076;29;20041;-80
2023/10/21 11:50:34;;;;;;;2.35;1.30;;;14.00;99.90;;;;;;4875375;29;20072;-81
2023/10/21 11:53:05;;;;;;;1.80;1.30;;;14.00;99.90;;;;;;4890700;29;20068;-80
2023/10/21 12:25:09;;;;;;;3.45;1.30;;;13.90;99.90;;;;;;4875479;29;20495;-81
2023/10/21 12:41:11;;;;;;;2.72;0.90;;;13.90;99.90;;;;;;4875615;29;20064;-81
2023/10/21 12:43:35;;;;;;;1.30;1.00;;;13.90;99.90;;;;;;4861974;29;20467;-81
2023/10/21 12:46:16;;;;;;;2.80;1.10;;;14.00;99.90;;;;;;4874344;29;20059;-81
2023/10/21 12:48:42;;;;;;;2.50;1.10;;;14.20;99.90;;;;;;4870586;29;20608;-82
2023/10/21 12:51:09;;;;;;;2.38;1.10;;;14.40;99.90;;;;;;4850524;29;20452;-81
2023/10/21 12:53:35;;;;;;;2.63;0.95;;;14.40;99.90;;;;;;4861975;29;20051;-81
2023/10/21 12:56:06;;;;;;;2.50;1.10;;;14.50;99.90;;;;;;4874195;29;20043;-81
2023/10/21 12:58:32;;;;;;;4.60;1.20;;;14.60;99.90;;;;;;4872414;29;20075;-80
2023/10/21 13:00:58;;;;;;;1.10;0.90;;;14.70;99.90;;;;;;4875519;29;20107;-81
2023/10/21 13:03:24;;;;;;;2.80;1.10;;;14.70;99.90;;;;;;4877955;29;20048;-81
2023/10/21 13:05:52;;;;;;;2.63;1.10;;;14.60;99.90;;;;;;4868989;29;20091;-82
2023/10/21 13:08:21;;;;;;;2.00;1.02;;;14.60;99.90;;;;;;4854685;29;20715;-81
2023/10/21 13:10:48;;;;;;;2.65;1.10;;;14.50;99.90;;;;;;4882869;29;20104;-81
2023/10/21 13:13:17;;;;;;;2.97;1.00;;;14.60;99.90;;;;;;4860112;29;20036;-81
2023/10/21 13:15:43;;;;;;;1.83;1.00;;;14.70;99.90;;;;;;4859826;29;20487;-81
2023/10/21 13:18:09;;;;;;;3.30;1.10;;;14.70;99.90;;;;;;4854396;29;20123;-82
2023/10/21 13:20:35;;;;;;;2.22;1.10;;;14.70;99.90;;;;;;4849218;29;20456;-82
2023/10/21 13:23:01;;;;;;;2.72;1.17;;;14.60;99.90;;;;;;4864767;29;20440;-82
2023/10/21 13:25:27;;;;;;;2.47;1.13;;;14.50;99.90;;;;;;4838577;29;20849;-82